Seleccione un Aeropuerto
Regional La Paz
EstacinAerodromoSit. GeograficaDescripcin
SLLPInternaciónal El Alto16-08S-68-10W SLLP 021100Z 07006KT 4000E VCFG FEW002 FEW017CB SCT070 BKN200 07/06 Q1036 A3060 626.8 HR97 P4452 VCFG NE/E/SE CB NW NOSIG=
SLRYReyes14-18S-67-21W SLRY 012000Z 34014KT 9999 FEW020 FEW200 32/23 Q1002 A2961 HR62 RWY HUM OPR=
SLRQRurrenabaque14-25S-67-29W SLRQ 012000Z 36006KT 9999 FEW020 33/26 Q1003 A2964 979.8 HR68=
SLAPApolo14-44S-68-24W SLAP 012000Z 36010G20KT 9999 FEW030 SCT200 27/17 Q1011 A2988 853.2 HR57=
SLSBSan Borja14-51S-66-44W SLSB 012000Z 32004KT 9999 BKN020 32/25 Q1005 A2968 HR68 RWY WET OPR C210=
SLCNCharaña17-35S-69-25W
SLOROruro17-57S-67-04W SLOR 021100Z 00000KT 9999 FEW015 BKN200 10/04 Q1032 A3050 654.4 HR67 AC=
SLUYUyuni20-27S-62-52W SLUY 021100Z 00000KT 9999 NSC 05/M11 Q1033 A3050 657.6 HR29 CI=
SLCCCopacabana - Tito Yupanqui16-11S-69-05W SLCC SLOR SLUY
Regional Cochabamba
EstacinAerodromoSit. GeograficaDescripcin
SLVMVillamontes21-15S-63-24W SLVM 021100Z 00000KT 9999 SCT070 25/22 Q1011 A2987 HR83 CI=
SLHIChimore16-58S-65-09W SLHI 021100Z 00000KT 3000 -RA BKN008 OVC070 23/23 Q1009 A2982 HR100=
SLCBCochabamba17-25S-66-10W SLCB 021100Z 14004KT 9999 BKN027 BKN070 18/11 Q1023 A3023 750.4 HR64 FU NOSIG=
SLALAlcantari19-14S-65-09W SLAL 021100Z 03009KT 9999 SCT010 SCT070 11/09 Q1029 A3040 703.8 HR86 CI=
SLPOPotosí19-32S-65-43W SLPO 021100Z 00000KT 9999 FEW012 BKN200 09/06 Q1035 A3058 636.4 HR81 AC=
SLAGMonteagudo19-49S-63-58W SLAG 021100Z NIL=
SLTJTarija21-33S-64-42W SLTJ 021100Z 00000KT 9999 FEW015 BKN027 BKN070 17/14 Q1020 A3012 815.0 HR82=
SLYAYacuiba21-57S-63-39W SLYA 021100Z NIL=
SLBJBermejo22-46S-64-18W SLBJ 021100Z NIL=
Regional Santa Cruz
EstacinAerodromoSit. GeograficaDescripcin
SLVGValle Grande18-28S-64-05W SLVG 011200Z 00000KT 9999 BKN030 17/13 Q1022 A3018 HR72 RWY NML =
SLASAscención de Guarayos15-55S-63-09W SLAS 011200Z 36005KT 9999 OVC012 24/23 Q1013 A2992 HR96 RWY WET OPR=
SLCPConcepción16-08S-62-01W SLCP 011200Z 00000KT 9999 OVC006 22/21 Q1014 A2994 HR96 SH N/NE RWY WET OPR=
SLJVSan Javier16-16S-62-28W SLJV 011200Z NIL=
SLTISan Matías16-20S-58-24W SLTI 011200Z 36006KT 9999 NSC 27/23 Q1016 A3000 HR78 CI RWY NML =
SLSISan Ignacio de Velasco16-23S-60-57W SLSI 162100Z 18006KT 9999 SCT070 24/18 Q1012 A2988 HR69=
SLVRInternaciónal Viru Viru17-38S-63-08W SLVR 021100Z 32010KT 9999 FEW004 FEW025CB BKN070 24/23 Q1012 A2989 968.3 HR94 CB NW CI NOSIG=
SLETEl Trompillo17-48S-63-10W SLET 011900Z NIL=
SLJESan José de Chiquitos17-49S-60-44W SLJE 011200Z WO ATTN=
SLRBRoboré18-19S-59-45W SLRB 011800Z 36010KT 9999 BKN017 FEW023CB 30/23 Q1011 A2985 HR66 CB N/NW/W/S RWY NML=
SLPSPuerto Suárez18-58S-57-49W SLPS 011700Z 09004KT 9999 BKN017 34/23 Q1009 A2980 HR57=
SLCACamiri20-00S-63-31W SLCA 011800Z 00000KT 9999 BKN033 34/13 Q1010 A2983 HR28 RWY NML =
Regional Beni
EstacinAerodromoSit. GeograficaDescripcin
SLTRTrinidad14-49S-64-54W SLTR 012200Z 34006KT 9999 TS FEW020 FEW023CB BKN200 27/25 Q1005 A2969 986.9 HR89 CB/TS/SH S NOSIG=
SLCOCobija11-02S-68-47W SLCO 011900Z 35008KT 9999 SCT023 FEW025CB SCT200 29/25 Q1007 A2975 980.0 HR76 CB/SH/SE AC=
SLGMGuayaramerín10-53S-65-23W SLGM 011100Z 00000KT 9999 SCT003 SCT080 BKN200 25/24 Q1010 A2983 HR96=
SLRIRiberalta11-00S-66-04W SLRI 012100Z 36005KT 9999 FEW023 FEW025CB BKN200 33/23 Q1006 A2972 HR56 CB SE AC=
SLJOSan Joaquin13-03S-64-39W SLJO 011100Z NIL=
SLRASan Ramón13-15S-64-36W SLRA 011100Z WO ATTN=
SLMGSan Magdalena13-15S-64-36W SLMG 011100Z 00000KT 9999 BKN080 24/23 Q1008 A2977 HR98 RWY OPR C210=
SLBUBaures13-39S-63-42W SLBU 011100Z NIL=
SLSASanta Ana de Yacuma13-45S-65-26W SLSA 011200Z 34004KT 9999 SCT015 BKN200 25/23 Q1010 A2983 HR92=
SLSRSanta Rosa14-04S-66-47W SLSR 011100Z 00000KT 9999 SCT012 BKN080 24/22 Q1012 A2989 HR93 RWY WET INOP=
SLSMSan Ignacio de Moxos14-57S-65-38W SLSM 011100Z NIL=